Terminal Aerodrome Forecast
Issued by NWS

Home | Current Version | Previous Version | Text Only | Print | Product List | Glossary On
Versions: 1 2 3 4 5 6 7 8 9 10 11 12 13 14 15 16 17
000
FTUS46 KLOX 242300
TAFOXR
TAF
KOXR 242326Z 2500/2524 28010KT P6SM BKN150
     FM250500 30014KT P6SM BKN070
     FM251200 02015KT P6SM BKN100
     FM252000 30012KT P6SM SCT150=

USA.gov is the U.S. government's official web portal to all federal, state and local government web resources and services.